Colorado Springs, CO (80920)

12:46 PM MDT on October 21, 2014 (GMT -0600)
Charleston Place, Briargate, CO | Change Station
CLOSE
Current Station
Personal Weather Station
Location: Colorado Springs, CO
Elevation: 6870 ft
Nearby Weather Stations

Elev 6870 ft 38.95 °N, 104.76 °W | Updated 4 seconds ago

Clear
Clear
71.2 °F
Feels Like 76 °F
N
8.1
Wind Variable Wind from SE
Gusts 8.1 mph

Today
High -- | Low -- °F
--% Chance of Precip.
Yesterday
High -- | Low -- °F
Precip. -- in
7:14 AM 6:11 PM
Waning Crescent, 5% visible
Pressure 29.88 in
Visibility 10.0 miles
Clouds Clear
Heat Index 76 °F
Dew Point 41 °F
Humidity 33%
Rainfall 0.00 in
Snow Depth 1 in
UV 6 out of 12
Pollen 2.80 out of 12
PM2.5 Good
Flu Activity Sporadic
METAR KAFF 211758Z AUTO 18009KT 10SM CLR 20/04 A3008 RMK AO2 SLP119 T01970042 10197 20029 57013

More Conditions Fewer Conditions

Pressure 29.88 in
Visibility 10.0 miles
Clouds Clear
Heat Index 76 °F
Dew Point 41 °F
Humidity 33%
Rainfall 0.00 in
Snow Depth 1 in
UV 6 out of 12
Pollen 2.80 out of 12
PM2.5 Good
Flu Activity Sporadic
METAR KAFF 211758Z AUTO 18009KT 10SM CLR 20/04 A3008 RMK AO2 SLP119 T01970042 10197 20029 57013

More Conditions Fewer Conditions

10-Day Weather Forecast

Almanac

Astronomy

Oct. 21, 2014 Rise Set
Actual Time 7:14 AM MDT 6:11 PM MDT
Civil Twilight 6:47 AM MDT 6:39 PM MDT
Nautical Twilight 6:16 AM MDT 7:10 PM MDT
Astronomical Twilight 5:45 AM MDT 7:41 PM MDT
Moon 5:02 AM MDT 5:06 PM MDT
Length of Visible Light 11h 51m
Length of Day
10h 57m
Tomorrow will be 2m 22s shorter.
Waning Crescent, 5% of the Moon is Illuminated
Today
Waning Crescent
Oct 23
New
Oct 30
First Quarter
Nov 6
Full
Nov 14
Last Quarter

Today's Extremes

State Highs State Lows

Community

WunderPhotos

Upload Photos

1,763,742 photos uploaded!

Nearby

Air Quality

  Air Quality AQ Index Pollutant
Yesterday Good
OZONE
Yesterday Good
PM2.5
Current Good
PM2.5
Tuesday Good
PM2.5
Tuesday Good
OZONE

Snow Depth

Station Depth Elevation
Glen Cove 1 in 11460 ft
Echo Lake 0 in 10600 ft
Jackwhacker Gulch 0 in 10960 ft
Michigan Creek 0 in 10600 ft
Rough And Tumble 0 in 10360 ft

Earthquake Activity

City Distance Mag. Time & Date
Trinidad, Colorado 129 miles 2.7 10:33 PM MDT
2014-10-20
Trinidad, Colorado 121 miles 2.5 10:01 PM MDT
2014-10-19
Minimum magnitude displayed is 2.5.

Coastal Water Temperatures

Place Temperature
No Stations Reporting

Nearby Weather Stations